createdAt,value
2023-04-02T00:02:23.275Z,6.00
2023-04-02T00:05:30.134Z,5.95
2023-04-02T00:08:18.194Z,5.95
2023-04-02T00:11:01.492Z,5.89
2023-04-02T00:13:46.799Z,5.89
2023-04-02T00:16:20.615Z,5.83
2023-04-02T00:18:53.370Z,5.75
2023-04-02T00:21:38.226Z,5.74
2023-04-02T00:24:19.866Z,5.74
2023-04-02T00:26:50.556Z,5.73
2023-04-02T00:29:19.394Z,5.73
2023-04-02T00:31:52.878Z,5.71
2023-04-02T00:34:26.307Z,5.73
2023-04-02T00:36:54.923Z,5.71
2023-04-02T00:39:29.815Z,5.70
2023-04-02T00:42:05.222Z,5.67
2023-04-02T00:44:45.873Z,5.67
2023-04-02T00:47:24.372Z,5.67
2023-04-02T00:50:05.509Z,5.67
2023-04-02T00:52:35.394Z,5.66
2023-04-02T00:55:15.637Z,5.69
2023-04-02T00:57:45.153Z,5.66
2023-04-02T01:00:29.275Z,5.63
2023-04-02T01:03:16.451Z,5.66
2023-04-02T01:05:50.306Z,5.62
2023-04-02T01:08:35.333Z,5.60
2023-04-02T01:11:23.368Z,5.60
2023-04-02T01:14:07.078Z,5.59
2023-04-02T01:16:46.588Z,5.59
2023-04-02T01:19:49.192Z,5.47
2023-04-02T01:22:22.589Z,5.50
2023-04-02T01:24:50.648Z,5.43
2023-04-02T01:27:28.676Z,5.42
2023-04-02T01:29:58.993Z,5.39
2023-04-02T01:32:30.015Z,5.42
2023-04-02T01:34:58.317Z,5.38
2023-04-02T01:37:56.043Z,5.35
2023-04-02T01:40:47.218Z,5.34
2023-04-02T01:43:27.075Z,5.32
2023-04-02T01:45:57.049Z,5.28
2023-04-02T01:48:30.068Z,5.25
2023-04-02T01:51:00.371Z,5.24
2023-04-02T01:53:30.830Z,5.22
2023-04-02T01:56:01.395Z,5.24
2023-04-02T01:58:32.331Z,5.24
2023-04-02T02:01:02.239Z,5.27
2023-04-02T02:03:31.661Z,5.27
2023-04-02T02:06:00.405Z,5.28
2023-04-02T02:08:38.916Z,5.29
2023-04-02T02:11:15.499Z,5.31
2023-04-02T02:13:48.378Z,5.28
2023-04-02T02:16:20.583Z,5.27
2023-04-02T02:18:52.615Z,5.22
2023-04-02T02:21:28.182Z,5.17
2023-04-02T02:23:56.295Z,5.11
2023-04-02T02:26:26.339Z,5.05
2023-04-02T02:28:57.598Z,5.04
2023-04-02T02:31:33.436Z,5.00
2023-04-02T02:34:16.494Z,4.97
2023-04-02T02:36:51.650Z,4.97
2023-04-02T02:39:51.551Z,4.92
2023-04-02T02:42:24.899Z,4.94
2023-04-02T02:44:56.482Z,4.90
2023-04-02T02:47:29.207Z,4.84
2023-04-02T02:50:03.484Z,4.88
2023-04-02T02:52:34.984Z,4.90
2023-04-02T02:55:15.944Z,4.84
2023-04-02T02:57:57.369Z,4.85
2023-04-02T03:00:28.368Z,4.87
2023-04-02T03:02:59.459Z,4.84
2023-04-02T03:05:31.948Z,4.77
2023-04-02T03:08:08.975Z,4.72
2023-04-02T03:10:43.044Z,4.70
2023-04-02T03:13:19.817Z,4.55
2023-04-02T03:16:11.671Z,4.45
2023-04-02T03:18:57.557Z,4.39
2023-04-02T03:21:34.066Z,4.32
2023-04-02T03:24:08.538Z,4.29
2023-04-02T03:26:45.192Z,4.25
2023-04-02T03:29:27.358Z,4.25
2023-04-02T03:32:00.578Z,4.18
2023-04-02T03:35:00.278Z,4.14
2023-04-02T03:37:34.889Z,4.15
2023-04-02T03:40:09.874Z,4.17
2023-04-02T03:42:58.376Z,4.09
2023-04-02T03:45:36.689Z,4.08
2023-04-02T03:48:32.463Z,4.05
2023-04-02T03:51:16.743Z,4.02
2023-04-02T03:53:45.843Z,3.97
2023-04-02T03:56:39.688Z,3.90
2023-04-02T03:59:24.864Z,3.89
2023-04-02T04:01:56.310Z,3.86
2023-04-02T04:04:28.901Z,3.90
2023-04-02T04:06:58.591Z,3.93
2023-04-02T04:09:37.675Z,3.87
2023-04-02T04:12:27.804Z,3.76
2023-04-02T04:15:14.360Z,3.73
2023-04-02T04:18:19.489Z,3.69
2023-04-02T04:20:48.496Z,3.64
2023-04-02T04:23:32.154Z,3.63
2023-04-02T04:26:34.902Z,3.59
2023-04-02T04:29:45.718Z,3.55
2023-04-02T04:32:39.283Z,3.60
2023-04-02T04:35:23.785Z,3.56
2023-04-02T04:37:58.844Z,3.51
2023-04-02T04:40:31.529Z,3.49
2023-04-02T04:43:12.262Z,3.45
2023-04-02T04:45:50.553Z,3.39
2023-04-02T04:48:21.958Z,3.42
2023-04-02T04:51:17.503Z,3.36
2023-04-02T04:53:52.516Z,3.32
2023-04-02T04:56:26.518Z,3.31
2023-04-02T04:59:11.876Z,3.24
2023-04-02T05:01:50.566Z,3.22
2023-04-02T05:04:29.050Z,3.18
2023-04-02T05:07:13.251Z,3.19
2023-04-02T05:10:03.469Z,3.24
2023-04-02T05:12:43.715Z,3.19
2023-04-02T05:16:01.325Z,3.17
2023-04-02T05:18:49.087Z,3.09
2023-04-02T05:21:20.622Z,3.09
2023-04-02T05:23:59.335Z,2.98
2023-04-02T05:26:39.561Z,2.91
2023-04-02T05:29:17.297Z,2.91
2023-04-02T05:32:03.919Z,2.86
2023-04-02T05:34:39.955Z,2.81
2023-04-02T05:37:19.812Z,2.81
2023-04-02T05:39:53.810Z,2.76
2023-04-02T05:42:29.405Z,2.70
2023-04-02T05:45:23.167Z,2.67
2023-04-02T05:47:59.860Z,2.67
2023-04-02T05:50:43.264Z,2.60
2023-04-02T05:53:32.090Z,2.57
2023-04-02T05:56:20.259Z,2.53
2023-04-02T05:58:55.897Z,2.49
2023-04-02T06:01:40.888Z,2.48
2023-04-02T06:04:36.645Z,2.42
2023-04-02T06:07:32.119Z,2.44
2023-04-02T06:10:11.530Z,2.45
2023-04-02T06:12:51.490Z,2.46
2023-04-02T06:15:23.146Z,2.42
2023-04-02T06:18:08.924Z,2.48
2023-04-02T06:20:38.229Z,2.46
2023-04-02T06:23:32.123Z,2.46
2023-04-02T06:26:09.997Z,2.50
2023-04-02T06:28:51.111Z,2.53
2023-04-02T06:31:26.342Z,2.49
2023-04-02T06:33:56.433Z,2.55
2023-04-02T06:36:28.459Z,2.57
2023-04-02T06:39:08.571Z,2.66
2023-04-02T06:41:37.255Z,2.60
2023-04-02T06:44:28.100Z,2.57
2023-04-02T06:47:31.103Z,2.63
2023-04-02T06:50:04.814Z,2.55
2023-04-02T06:52:47.469Z,2.60
2023-04-02T06:55:37.386Z,2.66
2023-04-02T06:58:05.878Z,2.64
2023-04-02T07:00:43.340Z,2.67
2023-04-02T07:03:30.960Z,2.64
2023-04-02T07:06:03.634Z,2.69
2023-04-02T07:08:32.910Z,2.60
2023-04-02T07:11:01.662Z,2.53
2023-04-02T07:13:30.182Z,2.56
2023-04-02T07:15:58.581Z,2.53
2023-04-02T07:18:29.816Z,2.53
2023-04-02T07:20:58.695Z,2.59
2023-04-02T07:23:27.184Z,2.49
2023-04-02T07:25:56.730Z,2.49
2023-04-02T07:28:25.258Z,2.50
2023-04-02T07:30:54.811Z,2.57
2023-04-02T07:33:25.986Z,2.52
2023-04-02T07:35:55.401Z,2.53
2023-04-02T07:38:23.554Z,2.56
2023-04-02T07:40:51.454Z,2.60
2023-04-02T07:43:19.269Z,2.59
2023-04-02T07:45:47.058Z,2.50
2023-04-02T07:48:15.406Z,2.60
2023-04-02T07:50:43.424Z,2.57
2023-04-02T07:53:37.781Z,2.52
2023-04-02T07:56:07.306Z,2.62
2023-04-02T07:58:35.634Z,2.60
2023-04-02T08:01:04.436Z,2.59
2023-04-02T08:03:32.913Z,2.63
2023-04-02T08:06:00.856Z,2.59
2023-04-02T08:08:28.664Z,2.44
2023-04-02T08:10:57.665Z,2.53
2023-04-02T08:13:25.457Z,2.59
2023-04-02T08:15:54.016Z,2.64
2023-04-02T08:18:26.140Z,2.73
2023-04-02T08:20:55.066Z,2.84
2023-04-02T08:23:23.301Z,2.91
2023-04-02T08:25:51.467Z,3.14
2023-04-02T08:28:19.765Z,3.17
2023-04-02T08:30:49.160Z,3.11
2023-04-02T08:33:18.131Z,3.21
2023-04-02T08:35:47.668Z,3.31
2023-04-02T08:38:21.547Z,3.28
2023-04-02T08:40:51.710Z,3.40
2023-04-02T08:43:28.941Z,3.64
2023-04-02T08:46:24.341Z,3.73
2023-04-02T08:48:57.426Z,3.79
2023-04-02T08:51:28.174Z,3.80
2023-04-02T08:54:01.411Z,3.76
2023-04-02T08:56:32.324Z,3.93
2023-04-02T08:59:07.527Z,4.01
2023-04-02T09:01:54.325Z,3.97
2023-04-02T09:04:25.232Z,4.02
2023-04-02T09:06:57.225Z,3.83
2023-04-02T09:09:26.145Z,3.80
2023-04-02T09:12:01.096Z,3.69
2023-04-02T09:14:44.215Z,3.70
2023-04-02T09:17:26.808Z,3.89
2023-04-02T09:20:19.288Z,3.73
2023-04-02T09:22:53.534Z,3.70
2023-04-02T09:25:26.962Z,3.81
2023-04-02T09:27:57.459Z,3.91
2023-04-02T09:30:47.391Z,3.91
2023-04-02T09:33:15.667Z,3.91
2023-04-02T09:35:56.457Z,4.21
2023-04-02T09:38:32.943Z,4.49
2023-04-02T09:41:04.120Z,4.81
2023-04-02T09:43:33.047Z,4.85
2023-04-02T09:46:05.829Z,5.64
2023-04-02T09:48:54.129Z,5.45
2023-04-02T09:51:24.484Z,5.08
2023-04-02T09:54:16.598Z,5.09
2023-04-02T09:57:03.991Z,5.29
2023-04-02T09:59:32.221Z,5.46
2023-04-02T10:02:03.315Z,5.47
2023-04-02T10:04:44.812Z,5.53
2023-04-02T10:07:34.750Z,6.01
2023-04-02T10:10:19.468Z,5.89
2023-04-02T10:12:53.943Z,5.97
2023-04-02T10:15:28.169Z,5.80
2023-04-02T10:18:07.961Z,5.90
2023-04-02T10:20:50.391Z,5.45
2023-04-02T10:23:30.976Z,5.52
2023-04-02T10:26:39.671Z,5.67
2023-04-02T10:29:32.548Z,5.73
2023-04-02T10:32:21.285Z,5.77
2023-04-02T10:35:03.107Z,5.78
2023-04-02T10:37:52.117Z,5.83
2023-04-02T10:40:28.379Z,6.07
2023-04-02T10:43:20.029Z,6.15
2023-04-02T10:46:02.256Z,6.17
2023-04-02T10:49:16.865Z,6.26
2023-04-02T10:51:53.633Z,6.35
2023-04-02T10:54:41.619Z,6.14
2023-04-02T10:57:16.680Z,6.10
2023-04-02T10:59:47.268Z,6.43
2023-04-02T11:02:56.820Z,6.38
2023-04-02T11:05:43.398Z,6.39
2023-04-02T11:08:43.837Z,6.60
2023-04-02T11:11:19.295Z,6.40
2023-04-02T11:14:12.966Z,6.69
2023-04-02T11:16:44.245Z,6.60
2023-04-02T11:19:18.203Z,6.76
2023-04-02T11:22:39.616Z,6.74
2023-04-02T11:25:22.646Z,6.63
2023-04-02T11:27:50.502Z,6.92
2023-04-02T11:30:26.269Z,6.98
2023-04-02T11:32:55.088Z,6.98
2023-04-02T11:35:30.921Z,7.08
2023-04-02T11:38:19.458Z,7.08
2023-04-02T11:40:48.788Z,7.21
2023-04-02T11:43:35.349Z,7.01
2023-04-02T11:46:03.225Z,6.98
2023-04-02T11:48:35.837Z,7.09
2023-04-02T11:51:32.983Z,6.94
2023-04-02T11:54:01.239Z,6.98
2023-04-02T11:56:29.001Z,7.14
2023-04-02T11:59:20.553Z,7.18
2023-04-02T12:02:13.085Z,7.18
2023-04-02T12:04:53.069Z,7.46
2023-04-02T12:07:34.941Z,7.35
2023-04-02T12:10:16.523Z,7.40
2023-04-02T12:12:44.948Z,7.59
2023-04-02T12:15:41.601Z,7.69
2023-04-02T12:18:23.494Z,7.46
2023-04-02T12:20:57.108Z,7.70
2023-04-02T12:23:32.503Z,7.97
2023-04-02T12:26:08.765Z,7.62
2023-04-02T12:28:38.107Z,7.73
2023-04-02T12:31:09.137Z,7.95
2023-04-02T12:33:41.322Z,7.92
2023-04-02T12:36:22.257Z,7.90
2023-04-02T12:38:53.740Z,8.08
2023-04-02T12:41:27.039Z,8.08
2023-04-02T12:44:06.841Z,8.11
2023-04-02T12:46:36.063Z,8.38
2023-04-02T12:49:21.843Z,8.13
2023-04-02T12:51:51.490Z,8.15
2023-04-02T12:54:20.696Z,8.13
2023-04-02T12:56:50.527Z,8.11
2023-04-02T12:59:36.376Z,8.19
2023-04-02T13:02:21.169Z,8.24
2023-04-02T13:04:51.598Z,8.26
2023-04-02T13:07:22.633Z,8.36
2023-04-02T13:09:53.524Z,8.59
2023-04-02T13:12:25.955Z,8.50
2023-04-02T13:14:57.049Z,8.25
2023-04-02T13:17:38.527Z,8.33
2023-04-02T13:20:36.174Z,8.39
2023-04-02T13:23:24.225Z,8.35
2023-04-02T13:25:53.106Z,8.36
2023-04-02T13:28:21.940Z,8.56
2023-04-02T13:30:50.257Z,8.50
2023-04-02T13:33:18.270Z,8.29
2023-04-02T13:35:46.662Z,8.36
2023-04-02T13:38:14.908Z,8.42
2023-04-02T13:40:44.218Z,8.61
2023-04-02T13:43:18.732Z,8.68
2023-04-02T13:45:51.620Z,8.52
2023-04-02T13:48:20.027Z,8.53
2023-04-02T13:50:48.134Z,8.61
2023-04-02T13:53:24.121Z,8.77
2023-04-02T13:55:52.672Z,8.88
2023-04-02T13:58:20.666Z,8.80
2023-04-02T14:00:49.051Z,8.71
2023-04-02T14:03:22.009Z,8.75
2023-04-02T14:06:07.097Z,8.78
2023-04-02T14:08:56.741Z,8.87
2023-04-02T14:11:43.414Z,8.83
2023-04-02T14:14:19.904Z,8.94
2023-04-02T14:17:15.862Z,8.89
2023-04-02T14:20:02.216Z,8.89
2023-04-02T14:23:01.082Z,8.84
2023-04-02T14:26:01.844Z,8.92
2023-04-02T14:28:42.912Z,8.94
2023-04-02T14:31:28.835Z,8.88
2023-04-02T14:34:02.736Z,9.04
2023-04-02T14:36:56.240Z,8.94
2023-04-02T14:39:37.224Z,9.01
2023-04-02T14:42:16.618Z,9.05
2023-04-02T14:45:16.749Z,9.07
2023-04-02T14:47:54.438Z,9.22
2023-04-02T14:50:30.044Z,9.22
2023-04-02T14:53:04.022Z,9.23
2023-04-02T14:55:42.524Z,9.25
2023-04-02T14:58:25.849Z,9.28
2023-04-02T15:01:03.106Z,9.36
2023-04-02T15:03:43.395Z,9.40
2023-04-02T15:06:22.530Z,9.38
2023-04-02T15:09:09.521Z,9.53
2023-04-02T15:11:49.493Z,9.49
2023-04-02T15:14:23.761Z,9.40
2023-04-02T15:16:51.851Z,9.49
2023-04-02T15:19:20.308Z,9.43
2023-04-02T15:22:09.124Z,9.39
2023-04-02T15:24:43.347Z,9.40
2023-04-02T15:27:29.495Z,9.40
2023-04-02T15:30:03.045Z,9.47
2023-04-02T15:32:34.297Z,9.51
2023-04-02T15:35:32.277Z,9.46
2023-04-02T15:38:02.988Z,9.47
2023-04-02T15:40:55.116Z,9.42
2023-04-02T15:43:31.610Z,9.29
2023-04-02T15:46:20.300Z,9.33
2023-04-02T15:49:00.646Z,9.42
2023-04-02T15:51:50.252Z,9.50
2023-04-02T15:54:58.651Z,9.50
2023-04-02T15:57:51.037Z,9.44
2023-04-02T16:00:23.798Z,9.30
2023-04-02T16:02:52.468Z,9.40
2023-04-02T16:05:53.599Z,9.42
2023-04-02T16:08:42.183Z,9.36
2023-04-02T16:11:15.084Z,9.32
2023-04-02T16:13:43.802Z,9.36
2023-04-02T16:16:27.038Z,9.36
2023-04-02T16:19:32.905Z,9.35
2023-04-02T16:22:09.132Z,9.38
2023-04-02T16:24:38.986Z,9.38
2023-04-02T16:27:07.732Z,9.42
2023-04-02T16:29:59.053Z,9.47
2023-04-02T16:33:01.520Z,9.51
2023-04-02T16:35:59.856Z,9.44
2023-04-02T16:38:36.425Z,9.56
2023-04-02T16:41:17.659Z,9.49
2023-04-02T16:44:19.010Z,9.47
2023-04-02T16:47:04.270Z,9.44
2023-04-02T16:49:41.637Z,9.39
2023-04-02T16:52:40.348Z,9.33
2023-04-02T16:55:23.368Z,9.29
2023-04-02T16:58:07.540Z,9.32
2023-04-02T17:00:56.641Z,9.29
2023-04-02T17:03:43.250Z,9.25
2023-04-02T17:06:14.224Z,9.19
2023-04-02T17:08:59.434Z,9.11
2023-04-02T17:12:01.540Z,8.98
2023-04-02T17:14:44.136Z,8.87
2023-04-02T17:17:14.773Z,8.78
2023-04-02T17:19:44.648Z,8.75
2023-04-02T17:22:21.193Z,8.68
2023-04-02T17:24:59.963Z,8.64
2023-04-02T17:27:33.618Z,8.59
2023-04-02T17:30:15.519Z,8.57
2023-04-02T17:32:43.650Z,8.52
2023-04-02T17:35:18.386Z,8.53
2023-04-02T17:37:52.765Z,8.50
2023-04-02T17:40:36.762Z,8.46
2023-04-02T17:43:32.810Z,8.39
2023-04-02T17:46:18.099Z,8.35
2023-04-02T17:48:48.395Z,8.26
2023-04-02T17:51:30.509Z,8.21
2023-04-02T17:54:12.359Z,8.18
2023-04-02T17:56:58.289Z,8.12
2023-04-02T17:59:41.920Z,8.04
2023-04-02T18:02:26.828Z,7.95
2023-04-02T18:05:20.535Z,7.94
2023-04-02T18:08:25.617Z,7.88
2023-04-02T18:11:05.018Z,7.77
2023-04-02T18:13:39.844Z,7.75
2023-04-02T18:16:26.741Z,7.69
2023-04-02T18:19:06.004Z,7.67
2023-04-02T18:21:58.514Z,7.59
2023-04-02T18:24:46.627Z,7.49
2023-04-02T18:27:26.139Z,7.43
2023-04-02T18:30:20.588Z,7.32
2023-04-02T18:33:30.857Z,7.28
2023-04-02T18:36:16.047Z,7.23
2023-04-02T18:39:06.664Z,7.18
2023-04-02T18:42:16.813Z,7.11
2023-04-02T18:45:23.131Z,7.08
2023-04-02T18:48:28.949Z,6.98
2023-04-02T18:51:00.499Z,6.92
2023-04-02T18:53:31.455Z,6.91
2023-04-02T18:56:14.174Z,6.85
2023-04-02T18:59:14.605Z,6.79
2023-04-02T19:01:48.742Z,6.77
2023-04-02T19:04:34.804Z,6.67
2023-04-02T19:07:14.445Z,6.57
2023-04-02T19:09:47.585Z,6.54
2023-04-02T19:12:23.532Z,6.50
2023-04-02T19:14:52.532Z,6.46
2023-04-02T19:17:46.038Z,6.40
2023-04-02T19:20:50.849Z,6.30
2023-04-02T19:23:34.267Z,6.24
2023-04-02T19:26:21.990Z,6.21
2023-04-02T19:29:21.488Z,6.19
2023-04-02T19:32:13.542Z,6.12
2023-04-02T19:34:49.129Z,6.04
2023-04-02T19:37:32.079Z,6.00
2023-04-02T19:40:28.916Z,6.00
2023-04-02T19:42:58.201Z,6.00
2023-04-02T19:45:44.239Z,5.87
2023-04-02T19:48:17.261Z,5.81
2023-04-02T19:50:46.480Z,5.77
2023-04-02T19:53:16.132Z,5.77
2023-04-02T19:55:45.447Z,5.75
2023-04-02T19:58:25.713Z,5.67
2023-04-02T20:00:54.008Z,5.64
2023-04-02T20:03:22.312Z,5.66
2023-04-02T20:05:50.469Z,5.69
2023-04-02T20:08:18.736Z,5.73
2023-04-02T20:10:47.028Z,5.69
2023-04-02T20:13:16.206Z,5.66
2023-04-02T20:15:47.214Z,5.60
2023-04-02T20:18:15.592Z,5.50
2023-04-02T20:20:46.848Z,5.45
2023-04-02T20:23:17.087Z,5.35
2023-04-02T20:25:55.101Z,5.35
2023-04-02T20:28:24.567Z,5.29
2023-04-02T20:30:53.062Z,5.29
2023-04-02T20:33:24.088Z,5.22
2023-04-02T20:35:52.903Z,5.19
2023-04-02T20:38:20.853Z,5.14
2023-04-02T20:40:52.991Z,5.04
2023-04-02T20:43:21.649Z,5.08
2023-04-02T20:46:01.247Z,5.04
2023-04-02T20:48:30.862Z,4.94
2023-04-02T20:51:00.286Z,4.91
2023-04-02T20:53:32.796Z,4.87
2023-04-02T20:56:10.156Z,4.81
2023-04-02T20:58:39.716Z,4.77
2023-04-02T21:01:12.846Z,4.76
2023-04-02T21:03:40.964Z,4.69
2023-04-02T21:06:22.563Z,4.63
2023-04-02T21:08:51.745Z,4.57
2023-04-02T21:11:21.841Z,4.56
2023-04-02T21:13:50.471Z,4.49
2023-04-02T21:16:22.533Z,4.48
2023-04-02T21:18:52.817Z,4.45
2023-04-02T21:21:21.998Z,4.41
2023-04-02T21:23:55.907Z,4.38
2023-04-02T21:26:24.025Z,4.34
2023-04-02T21:28:52.158Z,4.31
2023-04-02T21:31:27.802Z,4.28
2023-04-02T21:33:58.158Z,4.24
2023-04-02T21:36:29.262Z,4.19
2023-04-02T21:38:59.758Z,4.14
2023-04-02T21:41:30.837Z,4.09
2023-04-02T21:44:01.997Z,4.07
2023-04-02T21:46:33.787Z,4.05
2023-04-02T21:49:02.387Z,4.01
2023-04-02T21:51:33.507Z,3.94
2023-04-02T21:54:02.326Z,3.89
2023-04-02T21:56:33.028Z,3.89
2023-04-02T21:59:03.741Z,3.86
2023-04-02T22:01:34.279Z,3.84
2023-04-02T22:04:05.064Z,3.81
2023-04-02T22:06:39.549Z,3.79
2023-04-02T22:09:13.769Z,3.73
2023-04-02T22:11:44.978Z,3.69
2023-04-02T22:14:13.448Z,3.60
2023-04-02T22:16:42.136Z,3.55
2023-04-02T22:19:12.569Z,3.59
2023-04-02T22:21:40.754Z,3.55
2023-04-02T22:24:12.400Z,3.49
2023-04-02T22:26:40.675Z,3.45
2023-04-02T22:29:08.706Z,3.39
2023-04-02T22:31:36.820Z,3.36
2023-04-02T22:34:06.609Z,3.38
2023-04-02T22:36:35.755Z,3.32
2023-04-02T22:39:06.814Z,3.32
2023-04-02T22:41:35.497Z,3.28
2023-04-02T22:44:03.454Z,3.22
2023-04-02T22:46:31.603Z,3.19
2023-04-02T22:48:59.570Z,3.18
2023-04-02T22:51:28.041Z,3.11
2023-04-02T22:53:56.919Z,3.07
2023-04-02T22:56:32.157Z,3.07
2023-04-02T22:59:00.718Z,3.05
2023-04-02T23:01:32.455Z,3.05
2023-04-02T23:04:00.591Z,3.04
2023-04-02T23:06:29.216Z,2.97
2023-04-02T23:08:58.307Z,2.98
2023-04-02T23:11:28.069Z,2.93
2023-04-02T23:13:58.121Z,2.90
2023-04-02T23:16:28.484Z,2.90
2023-04-02T23:18:57.128Z,2.83
2023-04-02T23:21:26.257Z,2.84
2023-04-02T23:23:54.547Z,2.90
2023-04-02T23:26:31.320Z,2.86
2023-04-02T23:29:00.725Z,2.83
2023-04-02T23:31:28.862Z,2.80
2023-04-02T23:33:56.729Z,2.76
2023-04-02T23:36:27.296Z,2.73
2023-04-02T23:38:57.450Z,2.75
2023-04-02T23:41:27.207Z,2.73
2023-04-02T23:43:58.499Z,2.72
2023-04-02T23:46:26.695Z,2.75
2023-04-02T23:48:55.149Z,2.70
2023-04-02T23:51:23.948Z,2.67
2023-04-02T23:53:53.584Z,2.66
2023-04-02T23:56:22.252Z,2.69
2023-04-02T23:58:51.131Z,2.70
